sensor_id;sensor_type;location;lat;lon;timestamp;P1;durP1;ratioP1;P2;durP2;ratioP2
6791;SDS011;3433;48.730;9.108;2022-07-05T00:02:10;4.87;;;3.53;;
6791;SDS011;3433;48.730;9.108;2022-07-05T00:04:57;4.00;;;3.70;;
6791;SDS011;3433;48.730;9.108;2022-07-05T00:07:46;5.53;;;3.53;;
6791;SDS011;3433;48.730;9.108;2022-07-05T00:10:33;3.40;;;3.10;;
6791;SDS011;3433;48.730;9.108;2022-07-05T00:13:21;3.80;;;3.50;;
6791;SDS011;3433;48.730;9.108;2022-07-05T00:16:09;3.70;;;3.33;;
6791;SDS011;3433;48.730;9.108;2022-07-05T00:18:56;3.20;;;2.90;;
6791;SDS011;3433;48.730;9.108;2022-07-05T00:21:43;3.50;;;3.30;;
6791;SDS011;3433;48.730;9.108;2022-07-05T00:24:32;3.27;;;3.07;;
6791;SDS011;3433;48.730;9.108;2022-07-05T00:27:19;5.33;;;2.97;;
6791;SDS011;3433;48.730;9.108;2022-07-05T00:30:07;3.77;;;3.50;;
6791;SDS011;3433;48.730;9.108;2022-07-05T00:32:55;5.97;;;3.20;;
6791;SDS011;3433;48.730;9.108;2022-07-05T00:35:42;4.43;;;2.93;;
6791;SDS011;3433;48.730;9.108;2022-07-05T00:38:30;3.50;;;3.20;;
6791;SDS011;3433;48.730;9.108;2022-07-05T00:41:18;3.60;;;3.30;;
6791;SDS011;3433;48.730;9.108;2022-07-05T00:44:06;3.40;;;3.13;;
6791;SDS011;3433;48.730;9.108;2022-07-05T00:46:55;3.53;;;3.20;;
6791;SDS011;3433;48.730;9.108;2022-07-05T00:49:42;3.93;;;3.00;;
6791;SDS011;3433;48.730;9.108;2022-07-05T00:52:29;3.30;;;2.57;;
6791;SDS011;3433;48.730;9.108;2022-07-05T00:55:17;3.67;;;3.10;;
6791;SDS011;3433;48.730;9.108;2022-07-05T00:58:06;3.20;;;2.73;;
6791;SDS011;3433;48.730;9.108;2022-07-05T01:00:53;3.20;;;2.90;;
6791;SDS011;3433;48.730;9.108;2022-07-05T01:03:40;5.00;;;3.20;;
6791;SDS011;3433;48.730;9.108;2022-07-05T01:06:28;3.57;;;3.13;;
6791;SDS011;3433;48.730;9.108;2022-07-05T01:09:16;3.13;;;2.83;;
6791;SDS011;3433;48.730;9.108;2022-07-05T01:12:04;3.00;;;2.80;;
6791;SDS011;3433;48.730;9.108;2022-07-05T01:14:53;3.67;;;2.90;;
6791;SDS011;3433;48.730;9.108;2022-07-05T01:17:42;3.97;;;3.10;;
6791;SDS011;3433;48.730;9.108;2022-07-05T01:20:30;3.83;;;3.53;;
6791;SDS011;3433;48.730;9.108;2022-07-05T01:23:20;4.43;;;2.57;;
6791;SDS011;3433;48.730;9.108;2022-07-05T01:26:08;3.80;;;3.40;;
6791;SDS011;3433;48.730;9.108;2022-07-05T01:28:56;4.87;;;3.10;;
6791;SDS011;3433;48.730;9.108;2022-07-05T01:31:43;3.23;;;2.90;;
6791;SDS011;3433;48.730;9.108;2022-07-05T01:34:31;3.60;;;3.33;;
6791;SDS011;3433;48.730;9.108;2022-07-05T01:37:19;3.03;;;2.83;;
6791;SDS011;3433;48.730;9.108;2022-07-05T01:40:08;4.07;;;3.07;;
6791;SDS011;3433;48.730;9.108;2022-07-05T01:42:56;3.40;;;3.10;;
6791;SDS011;3433;48.730;9.108;2022-07-05T01:45:43;3.30;;;2.80;;
6791;SDS011;3433;48.730;9.108;2022-07-05T01:48:33;3.17;;;2.87;;
6791;SDS011;3433;48.730;9.108;2022-07-05T01:51:24;3.00;;;2.70;;
6791;SDS011;3433;48.730;9.108;2022-07-05T01:54:13;3.83;;;3.03;;
6791;SDS011;3433;48.730;9.108;2022-07-05T01:57:02;3.00;;;2.80;;
6791;SDS011;3433;48.730;9.108;2022-07-05T01:59:51;3.03;;;2.83;;
6791;SDS011;3433;48.730;9.108;2022-07-05T02:02:39;3.00;;;2.80;;
6791;SDS011;3433;48.730;9.108;2022-07-05T02:05:28;3.37;;;3.07;;
6791;SDS011;3433;48.730;9.108;2022-07-05T02:08:15;3.00;;;2.80;;
6791;SDS011;3433;48.730;9.108;2022-07-05T02:11:03;2.87;;;2.67;;
6791;SDS011;3433;48.730;9.108;2022-07-05T02:13:52;4.27;;;2.87;;
6791;SDS011;3433;48.730;9.108;2022-07-05T02:16:39;3.37;;;3.10;;
6791;SDS011;3433;48.730;9.108;2022-07-05T02:19:27;3.30;;;3.00;;
6791;SDS011;3433;48.730;9.108;2022-07-05T02:22:14;2.87;;;2.67;;
6791;SDS011;3433;48.730;9.108;2022-07-05T02:25:02;2.77;;;2.43;;
6791;SDS011;3433;48.730;9.108;2022-07-05T02:27:49;3.17;;;2.97;;
6791;SDS011;3433;48.730;9.108;2022-07-05T02:30:39;4.20;;;2.63;;
6791;SDS011;3433;48.730;9.108;2022-07-05T02:33:26;6.00;;;2.80;;
6791;SDS011;3433;48.730;9.108;2022-07-05T02:36:14;3.53;;;3.00;;
6791;SDS011;3433;48.730;9.108;2022-07-05T02:39:01;3.03;;;2.73;;
6791;SDS011;3433;48.730;9.108;2022-07-05T02:41:48;3.50;;;3.17;;
6791;SDS011;3433;48.730;9.108;2022-07-05T02:44:36;4.03;;;3.00;;
6791;SDS011;3433;48.730;9.108;2022-07-05T02:47:25;3.10;;;2.80;;
6791;SDS011;3433;48.730;9.108;2022-07-05T02:50:12;3.20;;;2.90;;
6791;SDS011;3433;48.730;9.108;2022-07-05T02:52:59;5.40;;;3.20;;
6791;SDS011;3433;48.730;9.108;2022-07-05T02:55:47;3.20;;;2.90;;
6791;SDS011;3433;48.730;9.108;2022-07-05T02:58:34;3.20;;;3.00;;
6791;SDS011;3433;48.730;9.108;2022-07-05T03:01:24;3.93;;;2.57;;
6791;SDS011;3433;48.730;9.108;2022-07-05T03:04:13;3.40;;;3.10;;
6791;SDS011;3433;48.730;9.108;2022-07-05T03:07:00;3.00;;;2.80;;
6791;SDS011;3433;48.730;9.108;2022-07-05T03:09:47;3.17;;;2.83;;
6791;SDS011;3433;48.730;9.108;2022-07-05T03:12:34;3.10;;;2.90;;
6791;SDS011;3433;48.730;9.108;2022-07-05T03:15:22;2.90;;;2.70;;
6791;SDS011;3433;48.730;9.108;2022-07-05T03:18:09;2.73;;;2.50;;
6791;SDS011;3433;48.730;9.108;2022-07-05T03:20:58;2.97;;;2.77;;
6791;SDS011;3433;48.730;9.108;2022-07-05T03:23:45;3.37;;;2.73;;
6791;SDS011;3433;48.730;9.108;2022-07-05T03:26:32;3.63;;;2.80;;
6791;SDS011;3433;48.730;9.108;2022-07-05T03:29:19;3.57;;;2.93;;
6791;SDS011;3433;48.730;9.108;2022-07-05T03:32:07;3.90;;;3.00;;
6791;SDS011;3433;48.730;9.108;2022-07-05T03:34:54;4.80;;;3.70;;
6791;SDS011;3433;48.730;9.108;2022-07-05T03:37:43;2.97;;;2.77;;
6791;SDS011;3433;48.730;9.108;2022-07-05T03:40:30;3.83;;;2.83;;
6791;SDS011;3433;48.730;9.108;2022-07-05T03:43:17;3.30;;;3.10;;
6791;SDS011;3433;48.730;9.108;2022-07-05T03:46:05;3.93;;;2.70;;
6791;SDS011;3433;48.730;9.108;2022-07-05T03:48:53;3.90;;;2.90;;
6791;SDS011;3433;48.730;9.108;2022-07-05T03:51:40;3.57;;;2.97;;
6791;SDS011;3433;48.730;9.108;2022-07-05T03:54:29;4.00;;;3.13;;
6791;SDS011;3433;48.730;9.108;2022-07-05T03:57:16;3.70;;;2.50;;
6791;SDS011;3433;48.730;9.108;2022-07-05T04:00:04;4.33;;;2.80;;
6791;SDS011;3433;48.730;9.108;2022-07-05T04:02:52;3.00;;;2.80;;
6791;SDS011;3433;48.730;9.108;2022-07-05T04:05:39;3.03;;;2.77;;
6791;SDS011;3433;48.730;9.108;2022-07-05T04:08:27;3.60;;;2.70;;
6791;SDS011;3433;48.730;9.108;2022-07-05T04:11:15;3.27;;;3.00;;
6791;SDS011;3433;48.730;9.108;2022-07-05T04:14:03;5.80;;;2.87;;
6791;SDS011;3433;48.730;9.108;2022-07-05T04:16:50;2.83;;;2.53;;
6791;SDS011;3433;48.730;9.108;2022-07-05T04:19:37;4.10;;;2.90;;
6791;SDS011;3433;48.730;9.108;2022-07-05T04:22:25;6.30;;;2.77;;
6791;SDS011;3433;48.730;9.108;2022-07-05T04:25:12;3.07;;;2.87;;
6791;SDS011;3433;48.730;9.108;2022-07-05T04:28:06;3.20;;;2.90;;
6791;SDS011;3433;48.730;9.108;2022-07-05T04:30:53;4.50;;;3.53;;
6791;SDS011;3433;48.730;9.108;2022-07-05T04:33:41;2.70;;;2.50;;
6791;SDS011;3433;48.730;9.108;2022-07-05T04:36:28;3.33;;;3.03;;
6791;SDS011;3433;48.730;9.108;2022-07-05T04:39:16;3.87;;;3.00;;
6791;SDS011;3433;48.730;9.108;2022-07-05T04:42:05;5.77;;;3.00;;
6791;SDS011;3433;48.730;9.108;2022-07-05T04:44:54;3.20;;;2.73;;
6791;SDS011;3433;48.730;9.108;2022-07-05T04:47:41;3.07;;;2.80;;
6791;SDS011;3433;48.730;9.108;2022-07-05T04:50:29;4.03;;;3.03;;
6791;SDS011;3433;48.730;9.108;2022-07-05T04:53:16;3.40;;;2.40;;
6791;SDS011;3433;48.730;9.108;2022-07-05T04:56:04;2.90;;;2.70;;
6791;SDS011;3433;48.730;9.108;2022-07-05T04:58:51;2.67;;;2.47;;
6791;SDS011;3433;48.730;9.108;2022-07-05T05:01:40;4.60;;;2.33;;
6791;SDS011;3433;48.730;9.108;2022-07-05T05:04:28;3.20;;;2.77;;
6791;SDS011;3433;48.730;9.108;2022-07-05T05:07:16;4.20;;;2.57;;
6791;SDS011;3433;48.730;9.108;2022-07-05T05:10:03;3.57;;;2.70;;
6791;SDS011;3433;48.730;9.108;2022-07-05T05:12:51;6.37;;;2.10;;
6791;SDS011;3433;48.730;9.108;2022-07-05T05:15:39;2.77;;;1.90;;
6791;SDS011;3433;48.730;9.108;2022-07-05T05:18:28;2.73;;;2.30;;
6791;SDS011;3433;48.730;9.108;2022-07-05T05:21:15;3.50;;;2.27;;
6791;SDS011;3433;48.730;9.108;2022-07-05T05:24:06;4.03;;;1.70;;
6791;SDS011;3433;48.730;9.108;2022-07-05T05:26:54;2.07;;;1.90;;
6791;SDS011;3433;48.730;9.108;2022-07-05T05:29:41;2.27;;;2.10;;
6791;SDS011;3433;48.730;9.108;2022-07-05T05:32:28;2.17;;;2.07;;
6791;SDS011;3433;48.730;9.108;2022-07-05T05:35:17;9.47;;;2.67;;
6791;SDS011;3433;48.730;9.108;2022-07-05T05:38:06;4.20;;;1.70;;
6791;SDS011;3433;48.730;9.108;2022-07-05T05:40:53;6.77;;;1.87;;
6791;SDS011;3433;48.730;9.108;2022-07-05T05:43:40;4.03;;;2.10;;
6791;SDS011;3433;48.730;9.108;2022-07-05T05:46:28;2.07;;;1.97;;
6791;SDS011;3433;48.730;9.108;2022-07-05T05:49:15;2.00;;;1.80;;
6791;SDS011;3433;48.730;9.108;2022-07-05T05:52:04;2.23;;;2.03;;
6791;SDS011;3433;48.730;9.108;2022-07-05T05:54:51;3.13;;;2.07;;
6791;SDS011;3433;48.730;9.108;2022-07-05T05:57:39;12.43;;;3.10;;
6791;SDS011;3433;48.730;9.108;2022-07-05T06:00:26;4.17;;;2.33;;
6791;SDS011;3433;48.730;9.108;2022-07-05T06:03:13;2.17;;;1.80;;
6791;SDS011;3433;48.730;9.108;2022-07-05T06:06:01;2.60;;;1.70;;
6791;SDS011;3433;48.730;9.108;2022-07-05T06:08:50;2.93;;;1.83;;
6791;SDS011;3433;48.730;9.108;2022-07-05T06:11:37;3.40;;;2.13;;
6791;SDS011;3433;48.730;9.108;2022-07-05T06:14:24;3.77;;;1.80;;
6791;SDS011;3433;48.730;9.108;2022-07-05T06:17:11;2.43;;;1.70;;
6791;SDS011;3433;48.730;9.108;2022-07-05T06:19:59;2.30;;;1.70;;
6791;SDS011;3433;48.730;9.108;2022-07-05T06:22:46;1.97;;;1.40;;
6791;SDS011;3433;48.730;9.108;2022-07-05T06:25:35;1.93;;;1.27;;
6791;SDS011;3433;48.730;9.108;2022-07-05T06:28:23;2.27;;;1.67;;
6791;SDS011;3433;48.730;9.108;2022-07-05T06:31:10;3.03;;;1.50;;
6791;SDS011;3433;48.730;9.108;2022-07-05T06:33:57;1.93;;;1.53;;
6791;SDS011;3433;48.730;9.108;2022-07-05T06:36:44;3.33;;;1.80;;
6791;SDS011;3433;48.730;9.108;2022-07-05T06:39:32;1.53;;;1.37;;
6791;SDS011;3433;48.730;9.108;2022-07-05T06:42:20;2.17;;;1.50;;
6791;SDS011;3433;48.730;9.108;2022-07-05T06:45:08;1.60;;;1.50;;
6791;SDS011;3433;48.730;9.108;2022-07-05T06:47:56;2.23;;;1.77;;
6791;SDS011;3433;48.730;9.108;2022-07-05T06:50:44;2.40;;;1.43;;
6791;SDS011;3433;48.730;9.108;2022-07-05T06:53:32;1.90;;;1.60;;
6791;SDS011;3433;48.730;9.108;2022-07-05T06:56:19;4.10;;;1.90;;
6791;SDS011;3433;48.730;9.108;2022-07-05T06:59:08;1.90;;;1.50;;
6791;SDS011;3433;48.730;9.108;2022-07-05T07:01:55;1.47;;;1.37;;
6791;SDS011;3433;48.730;9.108;2022-07-05T07:04:42;1.53;;;1.43;;
6791;SDS011;3433;48.730;9.108;2022-07-05T07:07:30;6.37;;;1.77;;
6791;SDS011;3433;48.730;9.108;2022-07-05T07:10:35;1.90;;;1.70;;
6791;SDS011;3433;48.730;9.108;2022-07-05T07:13:22;2.93;;;1.37;;
6791;SDS011;3433;48.730;9.108;2022-07-05T07:16:11;1.77;;;1.23;;
6791;SDS011;3433;48.730;9.108;2022-07-05T07:18:58;2.73;;;1.70;;
6791;SDS011;3433;48.730;9.108;2022-07-05T07:21:45;1.30;;;1.20;;
6791;SDS011;3433;48.730;9.108;2022-07-05T07:24:32;1.50;;;1.40;;
6791;SDS011;3433;48.730;9.108;2022-07-05T07:27:20;1.80;;;1.10;;
6791;SDS011;3433;48.730;9.108;2022-07-05T07:30:07;1.53;;;1.00;;
6791;SDS011;3433;48.730;9.108;2022-07-05T07:32:57;1.30;;;1.20;;
6791;SDS011;3433;48.730;9.108;2022-07-05T07:35:44;1.10;;;1.10;;
6791;SDS011;3433;48.730;9.108;2022-07-05T07:38:32;1.90;;;1.20;;
6791;SDS011;3433;48.730;9.108;2022-07-05T07:41:19;1.53;;;0.83;;
6791;SDS011;3433;48.730;9.108;2022-07-05T07:44:06;3.23;;;1.10;;
6791;SDS011;3433;48.730;9.108;2022-07-05T07:46:53;1.63;;;1.47;;
6791;SDS011;3433;48.730;9.108;2022-07-05T07:49:42;4.43;;;2.90;;
6791;SDS011;3433;48.730;9.108;2022-07-05T07:52:29;1.20;;;1.10;;
6791;SDS011;3433;48.730;9.108;2022-07-05T07:55:19;5.40;;;1.47;;
6791;SDS011;3433;48.730;9.108;2022-07-05T07:58:06;1.40;;;1.30;;
6791;SDS011;3433;48.730;9.108;2022-07-05T08:00:53;2.40;;;1.43;;
6791;SDS011;3433;48.730;9.108;2022-07-05T08:03:41;1.30;;;1.20;;
6791;SDS011;3433;48.730;9.108;2022-07-05T08:06:30;3.70;;;1.97;;
6791;SDS011;3433;48.730;9.108;2022-07-05T08:09:17;1.10;;;1.10;;
6791;SDS011;3433;48.730;9.108;2022-07-05T08:12:05;1.53;;;1.43;;
6791;SDS011;3433;48.730;9.108;2022-07-05T08:14:53;1.80;;;1.70;;
6791;SDS011;3433;48.730;9.108;2022-07-05T08:17:41;1.60;;;1.13;;
6791;SDS011;3433;48.730;9.108;2022-07-05T08:20:48;1.90;;;1.40;;
6791;SDS011;3433;48.730;9.108;2022-07-05T08:23:54;2.70;;;1.40;;
6791;SDS011;3433;48.730;9.108;2022-07-05T08:26:41;2.20;;;1.70;;
6791;SDS011;3433;48.730;9.108;2022-07-05T08:29:29;3.83;;;1.70;;
6791;SDS011;3433;48.730;9.108;2022-07-05T08:32:16;1.70;;;1.43;;
6791;SDS011;3433;48.730;9.108;2022-07-05T08:35:04;2.67;;;1.63;;
6791;SDS011;3433;48.730;9.108;2022-07-05T08:37:52;1.83;;;1.60;;
6791;SDS011;3433;48.730;9.108;2022-07-05T08:40:42;1.60;;;1.50;;
6791;SDS011;3433;48.730;9.108;2022-07-05T08:43:32;5.17;;;1.87;;
6791;SDS011;3433;48.730;9.108;2022-07-05T08:46:21;3.90;;;1.43;;
6791;SDS011;3433;48.730;9.108;2022-07-05T08:49:11;3.10;;;1.30;;
6791;SDS011;3433;48.730;9.108;2022-07-05T08:52:01;2.40;;;1.40;;
6791;SDS011;3433;48.730;9.108;2022-07-05T08:54:50;3.40;;;1.40;;
6791;SDS011;3433;48.730;9.108;2022-07-05T08:57:40;1.67;;;1.40;;
6791;SDS011;3433;48.730;9.108;2022-07-05T09:00:27;1.97;;;1.47;;
6791;SDS011;3433;48.730;9.108;2022-07-05T09:03:15;2.77;;;1.40;;
6791;SDS011;3433;48.730;9.108;2022-07-05T09:06:09;2.87;;;1.50;;
6791;SDS011;3433;48.730;9.108;2022-07-05T09:08:58;1.60;;;1.40;;
6791;SDS011;3433;48.730;9.108;2022-07-05T09:11:46;1.47;;;1.20;;
6791;SDS011;3433;48.730;9.108;2022-07-05T09:14:35;6.50;;;2.00;;
6791;SDS011;3433;48.730;9.108;2022-07-05T09:17:22;4.60;;;2.30;;
6791;SDS011;3433;48.730;9.108;2022-07-05T09:20:12;2.00;;;1.80;;
6791;SDS011;3433;48.730;9.108;2022-07-05T09:23:00;1.57;;;1.27;;
6791;SDS011;3433;48.730;9.108;2022-07-05T09:25:48;3.10;;;1.40;;
6791;SDS011;3433;48.730;9.108;2022-07-05T09:28:36;3.80;;;1.20;;
6791;SDS011;3433;48.730;9.108;2022-07-05T09:31:39;2.10;;;1.70;;
6791;SDS011;3433;48.730;9.108;2022-07-05T09:34:28;2.20;;;1.83;;
6791;SDS011;3433;48.730;9.108;2022-07-05T09:37:16;2.70;;;1.30;;
6791;SDS011;3433;48.730;9.108;2022-07-05T09:40:04;5.13;;;1.30;;
6791;SDS011;3433;48.730;9.108;2022-07-05T09:42:52;1.33;;;1.23;;
6791;SDS011;3433;48.730;9.108;2022-07-05T09:45:39;2.40;;;1.50;;
6791;SDS011;3433;48.730;9.108;2022-07-05T09:48:28;2.60;;;1.20;;
6791;SDS011;3433;48.730;9.108;2022-07-05T09:51:16;1.93;;;1.10;;
6791;SDS011;3433;48.730;9.108;2022-07-05T09:54:04;2.10;;;1.40;;
6791;SDS011;3433;48.730;9.108;2022-07-05T09:56:51;2.27;;;1.27;;
6791;SDS011;3433;48.730;9.108;2022-07-05T09:59:38;3.20;;;1.50;;
6791;SDS011;3433;48.730;9.108;2022-07-05T10:02:36;1.50;;;1.40;;
6791;SDS011;3433;48.730;9.108;2022-07-05T10:05:26;1.97;;;1.20;;
6791;SDS011;3433;48.730;9.108;2022-07-05T10:08:15;1.80;;;1.23;;
6791;SDS011;3433;48.730;9.108;2022-07-05T10:11:05;2.23;;;1.50;;
6791;SDS011;3433;48.730;9.108;2022-07-05T10:13:53;2.67;;;1.37;;
6791;SDS011;3433;48.730;9.108;2022-07-05T10:16:41;1.73;;;1.40;;
6791;SDS011;3433;48.730;9.108;2022-07-05T10:19:33;3.23;;;1.37;;
6791;SDS011;3433;48.730;9.108;2022-07-05T10:22:29;1.60;;;1.50;;
6791;SDS011;3433;48.730;9.108;2022-07-05T10:25:16;3.80;;;1.50;;
6791;SDS011;3433;48.730;9.108;2022-07-05T10:28:03;1.73;;;1.60;;
6791;SDS011;3433;48.730;9.108;2022-07-05T10:30:52;1.63;;;1.20;;
6791;SDS011;3433;48.730;9.108;2022-07-05T10:33:40;1.50;;;1.30;;
6791;SDS011;3433;48.730;9.108;2022-07-05T10:36:27;1.37;;;1.20;;
6791;SDS011;3433;48.730;9.108;2022-07-05T10:39:16;1.50;;;1.30;;
6791;SDS011;3433;48.730;9.108;2022-07-05T10:42:04;3.50;;;1.30;;
6791;SDS011;3433;48.730;9.108;2022-07-05T10:44:53;2.00;;;1.50;;
6791;SDS011;3433;48.730;9.108;2022-07-05T10:47:40;1.40;;;1.30;;
6791;SDS011;3433;48.730;9.108;2022-07-05T10:50:48;4.20;;;1.77;;
6791;SDS011;3433;48.730;9.108;2022-07-05T11:00:10;5.40;;;1.83;;
6791;SDS011;3433;48.730;9.108;2022-07-05T11:03:05;1.50;;;1.40;;
6791;SDS011;3433;48.730;9.108;2022-07-05T11:05:53;1.63;;;1.53;;
6791;SDS011;3433;48.730;9.108;2022-07-05T11:12:03;1.70;;;1.60;;
6791;SDS011;3433;48.730;9.108;2022-07-05T11:14:53;2.33;;;1.53;;
6791;SDS011;3433;48.730;9.108;2022-07-05T11:21:18;3.77;;;1.90;;
6791;SDS011;3433;48.730;9.108;2022-07-05T11:24:18;1.53;;;1.30;;
6791;SDS011;3433;48.730;9.108;2022-07-05T11:27:09;1.23;;;1.10;;
6791;SDS011;3433;48.730;9.108;2022-07-05T11:29:58;1.83;;;1.40;;
6791;SDS011;3433;48.730;9.108;2022-07-05T11:32:45;5.00;;;1.90;;
6791;SDS011;3433;48.730;9.108;2022-07-05T11:35:33;4.60;;;1.70;;
6791;SDS011;3433;48.730;9.108;2022-07-05T11:38:24;1.50;;;1.40;;
6791;SDS011;3433;48.730;9.108;2022-07-05T11:41:12;2.63;;;1.57;;
6791;SDS011;3433;48.730;9.108;2022-07-05T11:44:00;3.10;;;1.27;;
6791;SDS011;3433;48.730;9.108;2022-07-05T11:46:50;1.87;;;1.20;;
6791;SDS011;3433;48.730;9.108;2022-07-05T11:49:37;3.30;;;3.00;;
6791;SDS011;3433;48.730;9.108;2022-07-05T11:52:25;3.17;;;1.70;;
6791;SDS011;3433;48.730;9.108;2022-07-05T11:55:13;3.80;;;1.70;;
6791;SDS011;3433;48.730;9.108;2022-07-05T11:58:00;3.40;;;1.40;;
6791;SDS011;3433;48.730;9.108;2022-07-05T12:00:52;1.30;;;1.20;;
6791;SDS011;3433;48.730;9.108;2022-07-05T12:03:53;1.60;;;1.30;;
6791;SDS011;3433;48.730;9.108;2022-07-05T12:06:41;1.87;;;1.27;;
6791;SDS011;3433;48.730;9.108;2022-07-05T12:09:29;1.70;;;1.60;;
6791;SDS011;3433;48.730;9.108;2022-07-05T12:12:38;2.60;;;1.30;;
6791;SDS011;3433;48.730;9.108;2022-07-05T12:15:33;2.27;;;1.80;;
6791;SDS011;3433;48.730;9.108;2022-07-05T12:18:20;2.70;;;1.43;;
6791;SDS011;3433;48.730;9.108;2022-07-05T12:21:12;6.43;;;2.00;;
6791;SDS011;3433;48.730;9.108;2022-07-05T12:24:00;7.20;;;1.63;;
6791;SDS011;3433;48.730;9.108;2022-07-05T12:26:47;2.80;;;1.50;;
6791;SDS011;3433;48.730;9.108;2022-07-05T12:29:36;1.90;;;1.33;;
6791;SDS011;3433;48.730;9.108;2022-07-05T12:32:23;2.90;;;1.70;;
6791;SDS011;3433;48.730;9.108;2022-07-05T12:35:25;2.13;;;1.90;;
6791;SDS011;3433;48.730;9.108;2022-07-05T12:38:18;1.30;;;1.20;;
6791;SDS011;3433;48.730;9.108;2022-07-05T12:41:07;2.47;;;1.50;;
6791;SDS011;3433;48.730;9.108;2022-07-05T12:43:55;1.90;;;1.60;;
6791;SDS011;3433;48.730;9.108;2022-07-05T12:46:46;5.37;;;1.47;;
6791;SDS011;3433;48.730;9.108;2022-07-05T12:52:53;2.10;;;1.90;;
6791;SDS011;3433;48.730;9.108;2022-07-05T12:55:44;2.60;;;1.43;;
6791;SDS011;3433;48.730;9.108;2022-07-05T12:58:49;3.20;;;1.50;;
6791;SDS011;3433;48.730;9.108;2022-07-05T13:01:39;3.97;;;1.40;;
6791;SDS011;3433;48.730;9.108;2022-07-05T13:04:27;7.00;;;1.43;;
6791;SDS011;3433;48.730;9.108;2022-07-05T13:07:23;3.80;;;1.30;;
6791;SDS011;3433;48.730;9.108;2022-07-05T13:10:13;2.43;;;1.60;;
6791;SDS011;3433;48.730;9.108;2022-07-05T13:13:03;1.47;;;1.30;;
6791;SDS011;3433;48.730;9.108;2022-07-05T13:15:50;1.67;;;1.40;;
6791;SDS011;3433;48.730;9.108;2022-07-05T13:18:38;3.23;;;2.27;;
6791;SDS011;3433;48.730;9.108;2022-07-05T13:21:25;1.70;;;1.60;;
6791;SDS011;3433;48.730;9.108;2022-07-05T13:24:12;1.60;;;1.50;;
6791;SDS011;3433;48.730;9.108;2022-07-05T13:27:00;2.30;;;1.53;;
6791;SDS011;3433;48.730;9.108;2022-07-05T13:29:49;1.60;;;1.50;;
6791;SDS011;3433;48.730;9.108;2022-07-05T13:32:36;2.00;;;1.77;;
6791;SDS011;3433;48.730;9.108;2022-07-05T13:35:24;2.67;;;1.53;;
6791;SDS011;3433;48.730;9.108;2022-07-05T13:38:11;2.83;;;1.77;;
6791;SDS011;3433;48.730;9.108;2022-07-05T13:40:58;1.67;;;1.30;;
6791;SDS011;3433;48.730;9.108;2022-07-05T13:43:45;2.90;;;1.57;;
6791;SDS011;3433;48.730;9.108;2022-07-05T13:46:34;4.40;;;2.00;;
6791;SDS011;3433;48.730;9.108;2022-07-05T13:49:22;2.53;;;1.63;;
6791;SDS011;3433;48.730;9.108;2022-07-05T13:52:09;1.60;;;1.50;;
6791;SDS011;3433;48.730;9.108;2022-07-05T13:54:56;2.47;;;2.27;;
6791;SDS011;3433;48.730;9.108;2022-07-05T13:57:43;2.00;;;1.90;;
6791;SDS011;3433;48.730;9.108;2022-07-05T14:00:31;2.63;;;1.87;;
6791;SDS011;3433;48.730;9.108;2022-07-05T14:03:20;2.93;;;1.30;;
6791;SDS011;3433;48.730;9.108;2022-07-05T14:06:07;2.40;;;1.50;;
6791;SDS011;3433;48.730;9.108;2022-07-05T14:08:54;1.67;;;1.57;;
6791;SDS011;3433;48.730;9.108;2022-07-05T14:11:42;1.53;;;1.30;;
6791;SDS011;3433;48.730;9.108;2022-07-05T14:14:29;1.90;;;1.57;;
6791;SDS011;3433;48.730;9.108;2022-07-05T14:17:17;1.97;;;1.67;;
6791;SDS011;3433;48.730;9.108;2022-07-05T14:20:06;3.17;;;1.60;;
6791;SDS011;3433;48.730;9.108;2022-07-05T14:22:55;4.10;;;1.43;;
6791;SDS011;3433;48.730;9.108;2022-07-05T14:25:42;2.17;;;1.90;;
6791;SDS011;3433;48.730;9.108;2022-07-05T14:28:30;1.93;;;1.50;;
6791;SDS011;3433;48.730;9.108;2022-07-05T14:31:18;2.63;;;1.40;;
6791;SDS011;3433;48.730;9.108;2022-07-05T14:34:05;4.10;;;1.90;;
6791;SDS011;3433;48.730;9.108;2022-07-05T14:36:54;2.50;;;1.63;;
6791;SDS011;3433;48.730;9.108;2022-07-05T14:39:41;4.87;;;1.50;;
6791;SDS011;3433;48.730;9.108;2022-07-05T14:42:28;1.60;;;1.50;;
6791;SDS011;3433;48.730;9.108;2022-07-05T14:45:16;1.70;;;1.60;;
6791;SDS011;3433;48.730;9.108;2022-07-05T14:48:04;3.57;;;1.53;;
6791;SDS011;3433;48.730;9.108;2022-07-05T14:50:52;1.53;;;1.43;;
6791;SDS011;3433;48.730;9.108;2022-07-05T14:53:40;1.60;;;1.50;;
6791;SDS011;3433;48.730;9.108;2022-07-05T14:56:31;2.20;;;1.80;;
6791;SDS011;3433;48.730;9.108;2022-07-05T14:59:19;1.83;;;1.73;;
6791;SDS011;3433;48.730;9.108;2022-07-05T15:02:06;1.73;;;1.63;;
6791;SDS011;3433;48.730;9.108;2022-07-05T15:04:54;2.03;;;1.83;;
6791;SDS011;3433;48.730;9.108;2022-07-05T15:07:41;3.00;;;1.70;;
6791;SDS011;3433;48.730;9.108;2022-07-05T15:10:30;2.33;;;1.57;;
6791;SDS011;3433;48.730;9.108;2022-07-05T15:13:18;3.00;;;1.90;;
6791;SDS011;3433;48.730;9.108;2022-07-05T15:16:05;2.97;;;1.53;;
6791;SDS011;3433;48.730;9.108;2022-07-05T15:18:52;1.47;;;1.20;;
6791;SDS011;3433;48.730;9.108;2022-07-05T15:21:40;1.70;;;1.60;;
6791;SDS011;3433;48.730;9.108;2022-07-05T15:24:27;2.20;;;1.63;;
6791;SDS011;3433;48.730;9.108;2022-07-05T15:27:16;1.60;;;1.50;;
6791;SDS011;3433;48.730;9.108;2022-07-05T15:30:03;1.80;;;1.40;;
6791;SDS011;3433;48.730;9.108;2022-07-05T15:32:51;2.60;;;1.83;;
6791;SDS011;3433;48.730;9.108;2022-07-05T15:35:38;2.47;;;1.70;;
6791;SDS011;3433;48.730;9.108;2022-07-05T15:38:26;3.83;;;1.53;;
6791;SDS011;3433;48.730;9.108;2022-07-05T15:41:13;2.60;;;1.93;;
6791;SDS011;3433;48.730;9.108;2022-07-05T15:44:02;1.73;;;1.63;;
6791;SDS011;3433;48.730;9.108;2022-07-05T15:46:50;3.10;;;1.60;;
6791;SDS011;3433;48.730;9.108;2022-07-05T15:49:48;2.07;;;1.87;;
6791;SDS011;3433;48.730;9.108;2022-07-05T15:52:36;1.87;;;1.50;;
6791;SDS011;3433;48.730;9.108;2022-07-05T15:55:23;1.67;;;1.57;;
6791;SDS011;3433;48.730;9.108;2022-07-05T15:58:11;3.93;;;1.53;;
6791;SDS011;3433;48.730;9.108;2022-07-05T16:00:59;1.83;;;1.53;;
6791;SDS011;3433;48.730;9.108;2022-07-05T16:03:47;1.23;;;1.23;;
6791;SDS011;3433;48.730;9.108;2022-07-05T16:06:34;4.43;;;1.53;;
6791;SDS011;3433;48.730;9.108;2022-07-05T16:09:22;5.03;;;1.50;;
6791;SDS011;3433;48.730;9.108;2022-07-05T16:12:09;1.80;;;1.70;;
6791;SDS011;3433;48.730;9.108;2022-07-05T16:14:57;2.33;;;1.40;;
6791;SDS011;3433;48.730;9.108;2022-07-05T16:17:46;1.50;;;1.40;;
6791;SDS011;3433;48.730;9.108;2022-07-05T16:20:33;2.77;;;1.60;;
6791;SDS011;3433;48.730;9.108;2022-07-05T16:23:20;1.60;;;1.50;;
6791;SDS011;3433;48.730;9.108;2022-07-05T16:26:08;1.97;;;1.50;;
6791;SDS011;3433;48.730;9.108;2022-07-05T16:28:56;2.33;;;1.57;;
6791;SDS011;3433;48.730;9.108;2022-07-05T16:31:43;2.20;;;1.67;;
6791;SDS011;3433;48.730;9.108;2022-07-05T16:34:32;2.97;;;1.83;;
6791;SDS011;3433;48.730;9.108;2022-07-05T16:37:19;2.57;;;1.70;;
6791;SDS011;3433;48.730;9.108;2022-07-05T16:40:07;2.30;;;2.10;;
6791;SDS011;3433;48.730;9.108;2022-07-05T16:42:55;2.90;;;1.80;;
6791;SDS011;3433;48.730;9.108;2022-07-05T16:45:42;2.33;;;1.70;;
6791;SDS011;3433;48.730;9.108;2022-07-05T16:48:31;1.67;;;1.57;;
6791;SDS011;3433;48.730;9.108;2022-07-05T16:51:20;2.90;;;1.37;;
6791;SDS011;3433;48.730;9.108;2022-07-05T16:54:08;6.70;;;1.63;;
6791;SDS011;3433;48.730;9.108;2022-07-05T16:56:55;3.47;;;1.60;;
6791;SDS011;3433;48.730;9.108;2022-07-05T16:59:42;2.57;;;1.50;;
6791;SDS011;3433;48.730;9.108;2022-07-05T17:02:30;2.13;;;1.57;;
6791;SDS011;3433;48.730;9.108;2022-07-05T17:05:19;1.80;;;1.60;;
6791;SDS011;3433;48.730;9.108;2022-07-05T17:08:07;2.27;;;1.50;;
6791;SDS011;3433;48.730;9.108;2022-07-05T17:10:55;2.00;;;1.83;;
6791;SDS011;3433;48.730;9.108;2022-07-05T17:13:42;2.80;;;1.60;;
6791;SDS011;3433;48.730;9.108;2022-07-05T17:16:31;2.30;;;1.63;;
6791;SDS011;3433;48.730;9.108;2022-07-05T17:19:18;1.60;;;1.50;;
6791;SDS011;3433;48.730;9.108;2022-07-05T17:22:05;2.70;;;1.50;;
6791;SDS011;3433;48.730;9.108;2022-07-05T17:24:54;1.53;;;1.43;;
6791;SDS011;3433;48.730;9.108;2022-07-05T17:27:41;2.03;;;1.27;;
6791;SDS011;3433;48.730;9.108;2022-07-05T17:30:28;3.93;;;1.30;;
6791;SDS011;3433;48.730;9.108;2022-07-05T17:33:16;3.33;;;1.40;;
6791;SDS011;3433;48.730;9.108;2022-07-05T17:36:03;1.57;;;1.47;;
6791;SDS011;3433;48.730;9.108;2022-07-05T17:38:51;2.37;;;1.40;;
6791;SDS011;3433;48.730;9.108;2022-07-05T17:41:40;1.80;;;1.70;;
6791;SDS011;3433;48.730;9.108;2022-07-05T17:44:27;2.17;;;1.70;;